Time;durP1;ratioP1;P1;durP2;ratioP2;P2;SDS_P1;SDS_P2;PMS_P1;PMS_P2;Temp;Humidity;BMP_temperature;BMP_pressure;BME280_temperature;BME280_humidity;BME280_pressure;Samples;Min_cycle;Max_cycle;Signal;HPM_P1;HPM_P2
2021/08/03 00:02:22;;;;;;;4.33;2.15;;;;;;;11.71;97.82;93144.81;1697148;82;21076;-76
2021/08/03 00:04:51;;;;;;;1.90;1.80;;;;;;;11.70;98.18;93145.20;1699894;82;21226;-76
2021/08/03 00:07:19;;;;;;;4.65;2.22;;;;;;;11.67;98.50;93136.69;1676557;81;21641;-76
2021/08/03 00:09:47;;;;;;;3.37;2.40;;;;;;;11.68;98.70;93146.39;1699233;80;21061;-76
2021/08/03 00:12:16;;;;;;;5.03;2.30;;;;;;;11.67;99.06;93142.13;1683752;81;21031;-77
2021/08/03 00:14:46;;;;;;;2.42;2.22;;;;;;;11.71;98.49;93142.68;1670527;81;21022;-76
2021/08/03 00:17:16;;;;;;;6.80;2.15;;;;;;;11.73;98.02;93138.95;1720307;81;21074;-77
2021/08/03 00:19:45;;;;;;;7.72;4.35;;;;;;;11.76;96.81;93145.71;1698771;81;21360;-76
2021/08/03 00:22:12;;;;;;;7.20;4.22;;;;;;;11.75;96.30;93146.90;1680717;80;21164;-76
2021/08/03 00:24:41;;;;;;;4.40;3.45;;;;;;;11.75;96.12;93144.77;1709885;81;21078;-76
2021/08/03 00:27:08;;;;;;;4.80;2.12;;;;;;;11.74;96.28;93141.87;1642189;80;21089;-76
2021/08/03 00:29:37;;;;;;;4.70;2.30;;;;;;;11.77;95.98;93150.00;1674646;82;21041;-76
2021/08/03 00:32:05;;;;;;;2.40;2.20;;;;;;;11.80;95.84;93145.66;1686882;80;21098;-76
2021/08/03 00:34:36;;;;;;;2.40;2.20;;;;;;;11.80;95.50;93155.20;1669532;80;21131;-76
2021/08/03 00:37:06;;;;;;;4.92;2.22;;;;;;;11.75;95.20;93140.68;1677224;80;21180;-76
2021/08/03 00:39:36;;;;;;;1.67;1.57;;;;;;;11.68;95.11;93149.70;1667336;80;21136;-76
2021/08/03 00:42:05;;;;;;;2.17;1.65;;;;;;;11.56;95.45;93145.58;1684218;81;21132;-76
2021/08/03 00:44:49;;;;;;;3.45;2.00;;;;;;;11.49;95.91;93150.33;1708264;81;21116;-76
2021/08/03 00:47:18;;;;;;;2.00;1.90;;;;;;;11.41;96.31;93153.14;1742861;80;22393;-76
2021/08/03 00:49:46;;;;;;;2.10;1.80;;;;;;;11.37;96.80;93158.45;1713913;81;20975;-76
2021/08/03 00:52:14;;;;;;;2.02;1.90;;;;;;;11.35;96.88;93154.75;1654743;80;21119;-76
2021/08/03 00:54:43;;;;;;;2.55;1.87;;;;;;;11.35;97.21;93153.98;1721010;81;21131;-77
2021/08/03 00:57:11;;;;;;;2.27;1.80;;;;;;;11.41;97.22;93151.01;1672651;82;21177;-76
2021/08/03 00:59:38;;;;;;;1.98;1.65;;;;;;;11.45;96.88;93146.88;1688249;82;21192;-76
2021/08/03 01:02:06;;;;;;;2.25;2.00;;;;;;;11.49;96.82;93153.83;1671677;82;21085;-76
2021/08/03 01:04:33;;;;;;;4.17;1.85;;;;;;;11.54;96.47;93152.59;1718670;81;21089;-77
2021/08/03 01:07:49;;;;;;;2.33;1.70;;;;;;;11.58;95.83;93154.09;1725910;81;21093;-76
2021/08/03 01:10:48;;;;;;;2.12;1.90;;;;;;;11.52;95.27;93148.93;1706785;81;21027;-77
2021/08/03 01:13:28;;;;;;;2.10;1.90;;;;;;;11.48;95.83;93156.97;1730033;80;21657;-76
2021/08/03 01:16:22;;;;;;;2.12;1.77;;;;;;;11.40;95.71;93157.05;1753333;80;21093;-76
2021/08/03 01:19:14;;;;;;;3.12;1.98;;;;;;;11.41;95.92;93146.33;1720266;80;21089;-77
2021/08/03 01:22:11;;;;;;;1.95;1.77;;;;;;;11.47;96.03;93144.52;1721756;80;21160;-77
2021/08/03 01:25:01;;;;;;;5.42;2.80;;;;;;;11.45;95.47;93146.88;1722923;81;24307;-76
2021/08/03 01:28:03;;;;;;;2.35;2.15;;;;;;;11.32;96.10;93147.42;1694657;82;21077;-76
2021/08/03 01:30:30;;;;;;;4.70;2.30;;;;;;;11.28;96.46;93149.97;1740336;80;21081;-76
2021/08/03 01:32:57;;;;;;;2.75;1.95;;;;;;;11.29;96.83;93152.30;1644105;82;21056;-77
2021/08/03 01:35:24;;;;;;;3.25;1.70;;;;;;;11.32;96.87;93151.50;1743677;80;21149;-77
2021/08/03 01:37:51;;;;;;;2.67;2.10;;;;;;;11.37;96.77;93144.83;1720185;82;21149;-77
2021/08/03 01:40:20;;;;;;;2.72;2.10;;;;;;;11.41;96.26;93149.05;1716227;80;21054;-77
2021/08/03 01:42:49;;;;;;;1.80;1.70;;;;;;;11.45;95.97;93150.38;1701711;80;21323;-77
2021/08/03 01:45:17;;;;;;;2.20;1.72;;;;;;;11.49;95.29;93144.89;1679884;82;21113;-77
2021/08/03 01:47:44;;;;;;;2.50;1.95;;;;;;;11.41;94.74;93148.28;1683865;80;22053;-77
2021/08/03 01:50:12;;;;;;;2.45;1.87;;;;;;;11.31;95.06;93160.83;1698202;80;20983;-76
2021/08/03 01:52:40;;;;;;;3.62;2.55;;;;;;;11.29;95.67;93157.75;1699552;80;21094;-77
2021/08/03 01:55:10;;;;;;;2.90;1.85;;;;;;;11.32;95.35;93158.30;1701747;80;20991;-77
2021/08/03 01:57:43;;;;;;;3.08;1.70;;;;;;;11.30;94.60;93165.33;1679696;81;21088;-77
2021/08/03 02:00:12;;;;;;;2.05;1.70;;;;;;;11.15;94.26;93157.89;1695960;81;21834;-77
2021/08/03 02:02:44;;;;;;;1.60;1.50;;;;;;;10.96;94.71;93157.89;1702377;80;21097;-76
2021/08/03 02:05:11;;;;;;;1.80;1.70;;;;;;;10.85;95.59;93153.91;1698699;81;21080;-77
2021/08/03 02:07:40;;;;;;;2.30;2.00;;;;;;;10.79;96.42;93155.50;1714042;81;21068;-77
2021/08/03 02:10:09;;;;;;;4.17;1.80;;;;;;;10.79;96.79;93152.02;1685619;82;21078;-77
2021/08/03 02:12:36;;;;;;;5.20;1.75;;;;;;;10.76;96.81;93156.92;1688675;82;21086;-76
2021/08/03 02:15:04;;;;;;;1.67;1.60;;;;;;;10.69;96.55;93153.08;1686511;82;21628;-76
2021/08/03 02:17:31;;;;;;;4.05;2.00;;;;;;;10.58;96.71;93153.76;1719893;82;21188;-77
2021/08/03 02:20:05;;;;;;;2.20;1.95;;;;;;;10.46;97.22;93156.97;1725553;82;21077;-76
2021/08/03 02:22:34;;;;;;;5.08;2.00;;;;;;;10.44;98.22;93165.50;1687724;80;21556;-75
2021/08/03 02:25:09;;;;;;;1.95;1.85;;;;;;;10.50;98.24;93165.86;1718702;80;21136;-78
2021/08/03 02:27:37;;;;;;;3.77;1.80;;;;;;;10.48;98.16;93166.84;1671867;80;21098;-76
2021/08/03 02:30:06;;;;;;;2.55;2.35;;;;;;;10.45;98.60;93164.91;1672556;82;21073;-76
2021/08/03 02:32:57;;;;;;;4.10;2.70;;;;;;;10.42;99.15;93161.07;1667562;80;21041;-76
2021/08/03 02:35:28;;;;;;;3.37;3.00;;;;;;;10.48;99.80;93166.84;1743543;80;21066;-76
2021/08/03 02:37:59;;;;;;;2.80;2.60;;;;;;;10.57;100.00;93167.17;1690339;82;21101;-76
2021/08/03 02:40:26;;;;;;;5.47;2.75;;;;;;;10.67;100.00;93169.01;1711219;81;21075;-76
2021/08/03 02:42:57;;;;;;;4.67;2.90;;;;;;;10.75;99.97;93165.64;1680151;83;21081;-76
2021/08/03 02:45:23;;;;;;;6.20;4.28;;;;;;;10.83;99.97;93173.15;1711296;82;21142;-76
2021/08/03 02:47:54;;;;;;;6.62;3.47;;;;;;;10.86;100.00;93176.43;1682758;83;21162;-76
2021/08/03 02:50:24;;;;;;;4.30;3.70;;;;;;;10.90;100.00;93176.58;1711839;82;21595;-76
2021/08/03 02:52:54;;;;;;;3.75;3.40;;;;;;;10.94;100.00;93180.06;1712831;80;21051;-77
2021/08/03 02:55:25;;;;;;;2.08;1.87;;;;;;;11.02;100.00;93182.13;1651580;83;21117;-77
2021/08/03 02:58:00;;;;;;;1.72;1.62;;;;;;;11.07;99.39;93183.64;1693458;83;21762;-77
2021/08/03 03:00:29;;;;;;;1.80;1.70;;;;;;;11.05;97.79;93177.22;1679914;81;21643;-76
2021/08/03 03:02:57;;;;;;;1.98;1.87;;;;;;;10.94;97.20;93188.23;1715748;82;21110;-76
2021/08/03 03:05:26;;;;;;;5.85;2.10;;;;;;;10.85;97.55;93187.91;1696230;82;22427;-76
2021/08/03 03:07:58;;;;;;;2.55;2.35;;;;;;;10.79;97.82;93183.29;1708331;82;21522;-76
2021/08/03 03:10:28;;;;;;;2.22;2.10;;;;;;;10.79;98.36;93193.58;1739100;80;21415;-76
2021/08/03 03:12:59;;;;;;;1.75;1.65;;;;;;;10.85;98.66;93187.91;1699831;80;21056;-76
2021/08/03 03:15:25;;;;;;;1.98;1.87;;;;;;;10.90;98.25;93187.46;1726117;80;22293;-77
2021/08/03 03:17:52;;;;;;;2.05;1.75;;;;;;;10.97;97.58;93190.71;1682898;83;21158;-78
2021/08/03 03:20:20;;;;;;;1.32;1.30;;;;;;;10.98;96.62;93192.25;1711472;82;21351;-76
2021/08/03 03:22:48;;;;;;;5.53;1.62;;;;;;;10.85;95.91;93196.66;1713329;82;21061;-76
2021/08/03 03:25:25;;;;;;;1.85;1.75;;;;;;;10.69;96.29;93205.34;1677876;80;20975;-76
2021/08/03 03:27:59;;;;;;;2.33;1.85;;;;;;;10.60;96.87;93204.41;1725920;80;21855;-76
2021/08/03 03:30:26;;;;;;;2.02;1.82;;;;;;;10.55;97.60;93213.00;1723248;81;20963;-76
2021/08/03 03:32:53;;;;;;;2.08;1.98;;;;;;;10.53;98.44;93213.20;1688067;80;21027;-76
2021/08/03 03:35:21;;;;;;;3.22;2.27;;;;;;;10.54;98.92;93220.21;1729665;81;21714;-77
2021/08/03 03:37:49;;;;;;;3.00;2.12;;;;;;;10.58;99.40;93219.59;1726582;81;21692;-76
2021/08/03 03:40:19;;;;;;;2.55;1.90;;;;;;;10.63;100.00;93224.02;1659217;81;22152;-76
2021/08/03 03:42:48;;;;;;;2.45;1.62;;;;;;;10.74;100.00;93222.58;1695797;81;21066;-76
2021/08/03 03:45:15;;;;;;;2.47;2.17;;;;;;;10.80;99.66;93230.50;1677816;81;21109;-76
2021/08/03 03:47:59;;;;;;;2.12;1.80;;;;;;;10.82;98.63;93226.02;1730384;81;21141;-76
2021/08/03 03:50:34;;;;;;;2.58;2.37;;;;;;;10.80;98.32;93240.61;1706315;80;21091;-76
2021/08/03 03:53:10;;;;;;;1.92;1.80;;;;;;;10.81;98.89;93232.05;1722963;81;21610;-76
2021/08/03 03:55:37;;;;;;;7.55;3.58;;;;;;;10.85;99.33;93240.95;1729347;80;21608;-76
2021/08/03 03:58:04;;;;;;;3.35;2.55;;;;;;;10.92;99.21;93234.69;1708220;81;21111;-75
2021/08/03 04:00:36;;;;;;;3.80;2.65;;;;;;;10.97;98.59;93234.83;1681442;81;21081;-75
2021/08/03 04:03:04;;;;;;;2.58;2.37;;;;;;;10.98;98.55;93241.81;1696398;81;21085;-75
2021/08/03 04:05:31;;;;;;;2.95;2.40;;;;;;;11.02;99.43;93246.07;1651640;82;21254;-75
2021/08/03 04:08:00;;;;;;;7.53;3.25;;;;;;;11.10;99.67;93248.91;1720623;81;21553;-75
2021/08/03 04:10:32;;;;;;;3.95;3.22;;;;;;;11.20;100.00;93254.06;1673235;81;21084;-74
2021/08/03 04:12:59;;;;;;;4.28;3.80;;;;;;;11.28;100.00;93250.68;1691816;82;21140;-75
2021/08/03 04:15:27;;;;;;;10.75;4.30;;;;;;;11.35;100.00;93254.11;1695739;81;21096;-74
2021/08/03 04:17:53;;;;;;;4.58;3.08;;;;;;;11.42;100.00;93249.19;1653997;82;22250;-77
2021/08/03 04:20:20;;;;;;;3.72;2.80;;;;;;;11.48;99.68;93256.34;1679212;81;21550;-77
2021/08/03 04:22:46;;;;;;;8.45;4.12;;;;;;;11.50;98.84;93256.70;1706694;81;21443;-77
2021/08/03 04:25:13;;;;;;;4.08;3.42;;;;;;;11.52;99.22;93257.08;1686991;81;21106;-76
2021/08/03 04:27:39;;;;;;;3.37;3.08;;;;;;;11.59;99.42;93259.73;1696063;80;20970;-77
2021/08/03 04:30:08;;;;;;;5.78;3.95;;;;;;;11.63;99.59;93257.16;1657416;81;21091;-77
2021/08/03 04:32:34;;;;;;;6.67;3.05;;;;;;;11.71;99.66;93255.13;1696595;80;20982;-77
2021/08/03 04:35:01;;;;;;;3.30;3.10;;;;;;;11.81;99.46;93254.24;1696815;80;21027;-76
2021/08/03 04:37:27;;;;;;;3.50;3.20;;;;;;;11.85;99.48;93255.59;1720391;81;21080;-74
2021/08/03 04:39:54;;;;;;;3.50;3.20;;;;;;;11.91;99.94;93259.40;1716215;81;21509;-74
2021/08/03 04:42:20;;;;;;;4.55;3.27;;;;;;;12.00;99.89;93260.27;1648982;80;22386;-74
2021/08/03 04:44:47;;;;;;;3.92;3.37;;;;;;;12.09;99.91;93250.42;1694204;80;21104;-76
2021/08/03 04:47:14;;;;;;;4.87;2.83;;;;;;;12.25;100.00;93256.64;1672096;82;21117;-74
2021/08/03 04:49:41;;;;;;;3.62;3.33;;;;;;;12.48;100.00;93261.99;1686175;83;21054;-74
2021/08/03 04:52:07;;;;;;;4.50;4.10;;;;;;;12.72;100.00;93268.30;1693964;82;21058;-74
2021/08/03 04:54:35;;;;;;;3.40;3.10;;;;;;;12.88;99.50;93262.38;1695193;80;21526;-75
2021/08/03 04:57:02;;;;;;;3.15;2.95;;;;;;;12.99;98.27;93260.86;1685922;82;21075;-75
2021/08/03 04:59:29;;;;;;;3.72;3.42;;;;;;;13.07;97.52;93275.94;1694954;82;21513;-76
2021/08/03 05:01:56;;;;;;;3.90;3.60;;;;;;;13.11;97.03;93275.28;1712855;82;21141;-76
2021/08/03 05:04:22;;;;;;;4.12;3.72;;;;;;;13.16;96.74;93268.58;1666371;81;21109;-75
2021/08/03 05:06:49;;;;;;;3.62;3.33;;;;;;;13.16;95.81;93265.08;1669274;81;21179;-74
2021/08/03 05:09:16;;;;;;;5.97;4.42;;;;;;;13.15;95.33;93266.27;1704270;81;21013;-77
2021/08/03 05:11:43;;;;;;;4.20;3.80;;;;;;;13.20;95.75;93266.59;1728068;80;21080;-75
2021/08/03 05:14:09;;;;;;;3.90;3.60;;;;;;;13.31;95.64;93267.21;1680066;80;21026;-76
2021/08/03 05:16:37;;;;;;;4.15;3.80;;;;;;;13.42;95.36;93271.10;1688200;80;21073;-76
2021/08/03 05:19:05;;;;;;;4.75;4.28;;;;;;;13.57;95.40;93271.63;1746572;80;21092;-78
2021/08/03 05:21:32;;;;;;;6.08;4.12;;;;;;;13.79;94.80;93269.28;1701346;80;21324;-77
2021/08/03 05:23:59;;;;;;;4.60;4.05;;;;;;;14.01;93.88;93270.42;1701520;80;21084;-75
2021/08/03 05:26:25;;;;;;;5.42;3.00;;;;;;;14.26;92.57;93267.20;1690521;81;21151;-76
2021/08/03 05:28:52;;;;;;;4.55;3.80;;;;;;;14.38;90.74;93271.86;1717588;80;21129;-76
2021/08/03 05:31:18;;;;;;;3.37;2.37;;;;;;;14.41;89.33;93273.76;1668118;81;21472;-76
2021/08/03 05:33:45;;;;;;;3.15;2.87;;;;;;;14.39;89.20;93275.53;1670162;80;22318;-75
2021/08/03 05:36:11;;;;;;;3.50;3.25;;;;;;;14.41;89.79;93279.23;1640524;82;21173;-76
2021/08/03 05:38:38;;;;;;;2.95;2.75;;;;;;;14.45;89.40;93276.59;1683885;82;21075;-75
2021/08/03 05:41:07;;;;;;;2.87;2.67;;;;;;;14.51;89.52;93273.53;1642079;81;21096;-76
2021/08/03 05:43:37;;;;;;;7.03;3.62;;;;;;;14.62;89.42;93280.16;1687426;81;21192;-75
2021/08/03 05:46:06;;;;;;;4.30;3.87;;;;;;;14.76;88.99;93274.98;1692974;81;21072;-74
2021/08/03 05:48:33;;;;;;;4.78;3.67;;;;;;;14.97;88.46;93274.50;1669720;81;21092;-76
2021/08/03 05:51:01;;;;;;;3.65;3.35;;;;;;;15.29;87.04;93279.22;1688345;81;21039;-76
2021/08/03 05:53:28;;;;;;;3.00;2.70;;;;;;;15.59;85.53;93281.42;1706014;78;21147;-75
2021/08/03 05:55:55;;;;;;;3.40;3.20;;;;;;;15.81;84.25;93276.20;1729923;78;21096;-76
2021/08/03 05:58:22;;;;;;;3.12;2.92;;;;;;;16.01;82.88;93280.17;1730628;77;20964;-75
2021/08/03 06:00:50;;;;;;;3.25;2.67;;;;;;;16.19;81.66;93272.84;1778795;77;21080;-77
2021/08/03 06:03:16;;;;;;;3.45;3.15;;;;;;;16.27;81.44;93264.57;1808350;77;21052;-75
2021/08/03 06:05:43;;;;;;;3.62;3.33;;;;;;;16.45;81.13;93266.21;1782094;77;21776;-75
2021/08/03 06:08:11;;;;;;;3.20;2.95;;;;;;;16.69;80.21;93262.56;1780454;77;21827;-75
2021/08/03 06:10:37;;;;;;;3.77;3.47;;;;;;;17.04;79.16;93264.11;1702548;77;21747;-75
2021/08/03 06:13:06;;;;;;;4.45;3.98;;;;;;;17.55;78.34;93265.41;1775902;77;21447;-74
2021/08/03 06:15:39;;;;;;;8.95;3.20;;;;;;;18.10;75.75;93272.05;1729161;78;21084;-75
2021/08/03 06:18:12;;;;;;;4.58;2.65;;;;;;;18.58;73.77;93272.09;1713902;78;21117;-77
2021/08/03 06:20:41;;;;;;;2.62;2.45;;;;;;;18.98;71.27;93262.37;1791931;77;21088;-75
2021/08/03 06:23:12;;;;;;;5.17;2.50;;;;;;;19.19;69.70;93259.41;1711670;77;21106;-75
2021/08/03 06:25:40;;;;;;;3.02;2.37;;;;;;;19.19;68.22;93256.03;1784949;77;21052;-75
2021/08/03 06:28:07;;;;;;;2.72;2.52;;;;;;;19.11;68.83;93263.81;1761142;77;20956;-74
2021/08/03 06:30:37;;;;;;;2.62;2.42;;;;;;;19.08;69.15;93255.07;1780076;77;21072;-75
2021/08/03 06:33:07;;;;;;;3.10;2.70;;;;;;;19.04;68.88;93259.95;1758821;77;21203;-75
2021/08/03 06:35:34;;;;;;;2.22;2.10;;;;;;;18.98;69.37;93259.00;1732949;77;21718;-74
2021/08/03 06:38:00;;;;;;;2.50;2.30;;;;;;;19.06;69.04;93267.75;1761877;77;21599;-75
2021/08/03 06:40:29;;;;;;;2.45;2.33;;;;;;;19.20;68.56;93260.93;1735795;77;21573;-75
2021/08/03 06:43:13;;;;;;;3.75;2.25;;;;;;;19.26;67.88;93262.65;1758667;77;21622;-77
2021/08/03 06:45:42;;;;;;;2.33;2.17;;;;;;;19.35;67.91;93257.15;1786733;77;21603;-74
2021/08/03 06:48:19;;;;;;;2.55;2.25;;;;;;;19.45;66.52;93255.81;1732798;77;21075;-75
2021/08/03 06:51:00;;;;;;;2.50;2.30;;;;;;;19.48;66.52;93250.74;1753056;78;21026;-74
2021/08/03 06:53:27;;;;;;;3.12;2.30;;;;;;;19.50;66.08;93252.44;1694258;78;21135;-74
2021/08/03 06:55:54;;;;;;;4.17;3.75;;;;;;;19.50;66.51;93258.72;1788662;77;21160;-74
2021/08/03 06:58:52;;;;;;;5.03;4.47;;;;;;;19.52;66.35;93264.56;1729637;77;21100;-75
2021/08/03 07:01:29;;;;;;;4.45;3.90;;;;;;;19.52;66.29;93261.80;1775708;77;21048;-75
2021/08/03 07:04:00;;;;;;;5.22;2.75;;;;;;;19.47;65.68;93249.21;1723127;77;21145;-74
2021/08/03 07:06:27;;;;;;;3.08;2.77;;;;;;;19.40;66.07;93257.16;1735714;77;21091;-74
2021/08/03 07:08:54;;;;;;;3.10;2.83;;;;;;;19.30;66.95;93257.76;1773328;77;20974;-74
2021/08/03 07:11:21;;;;;;;4.25;2.72;;;;;;;19.28;66.90;93258.81;1773979;77;22421;-75
2021/08/03 07:16:41;;;;;;;3.40;3.10;;;;;;;19.26;66.85;93250.24;1797996;77;21140;-74
2021/08/03 07:19:08;;;;;;;3.80;3.50;;;;;;;19.25;66.87;93248.69;1689561;80;21073;-73
2021/08/03 07:21:35;;;;;;;3.00;2.80;;;;;;;19.25;67.74;93245.93;1696332;81;21207;-74
2021/08/03 07:24:03;;;;;;;2.52;2.33;;;;;;;19.24;66.95;93247.77;1690312;80;21484;-73
2021/08/03 07:26:30;;;;;;;2.55;2.35;;;;;;;19.26;66.39;93253.00;1674277;81;22332;-75
2021/08/03 07:31:32;;;;;;;3.70;2.45;;;;;;;19.36;66.81;93245.50;1826576;75;23117;-73
2021/08/03 07:33:58;;;;;;;2.90;2.70;;;;;;;19.32;66.86;93244.27;1758224;78;21131;-74
2021/08/03 07:36:25;;;;;;;2.95;2.40;;;;;;;19.35;66.13;93243.36;1744695;77;21382;-74
2021/08/03 07:38:54;;;;;;;3.65;3.35;;;;;;;19.35;65.90;93244.74;1727082;79;21061;-74
2021/08/03 07:41:25;;;;;;;6.30;4.72;;;;;;;19.37;65.94;93242.92;1800090;77;22203;-74
2021/08/03 07:43:52;;;;;;;10.05;5.10;;;;;;;19.42;65.75;93242.31;1804835;77;21047;-74
2021/08/03 07:46:19;;;;;;;4.15;3.85;;;;;;;19.45;65.96;93248.92;1713328;79;22318;-74
2021/08/03 07:48:51;;;;;;;6.83;3.90;;;;;;;19.52;66.01;93249.39;1716630;79;21074;-75
2021/08/03 07:51:22;;;;;;;3.20;3.00;;;;;;;19.60;65.00;93243.73;1721999;79;21110;-75
2021/08/03 07:53:49;;;;;;;3.22;2.47;;;;;;;19.64;64.40;93236.73;1749065;79;21614;-74
2021/08/03 07:56:15;;;;;;;2.37;2.17;;;;;;;19.65;64.05;93237.64;1711510;79;21653;-75
2021/08/03 07:58:42;;;;;;;2.17;2.08;;;;;;;19.69;62.02;93238.11;1696935;78;21140;-74
2021/08/03 08:01:08;;;;;;;2.47;2.33;;;;;;;19.76;61.55;93241.33;1717642;77;21226;-73
2021/08/03 08:03:36;;;;;;;2.62;2.42;;;;;;;19.87;62.72;93241.65;1746689;77;21322;-75
2021/08/03 08:06:04;;;;;;;2.33;2.22;;;;;;;19.91;62.26;93242.88;1722155;80;20935;-76
2021/08/03 08:08:31;;;;;;;5.70;2.62;;;;;;;19.87;61.60;93245.79;1740263;77;21036;-75
2021/08/03 08:10:57;;;;;;;2.00;1.90;;;;;;;19.80;62.31;93244.70;1758688;77;21602;-75
2021/08/03 08:13:25;;;;;;;2.10;1.92;;;;;;;19.81;63.03;93248.99;1709758;78;21084;-74
2021/08/03 08:15:53;;;;;;;1.77;1.67;;;;;;;19.84;62.68;93237.05;1738166;79;21973;-74
2021/08/03 08:18:20;;;;;;;4.70;2.02;;;;;;;19.91;62.25;93237.98;1754739;77;21573;-75
2021/08/03 08:20:46;;;;;;;2.25;2.08;;;;;;;20.00;61.03;93235.21;1733272;77;20930;-76
2021/08/03 08:23:14;;;;;;;2.02;1.85;;;;;;;20.05;60.87;93234.61;1713387;79;21614;-75
2021/08/03 08:25:41;;;;;;;2.20;2.10;;;;;;;19.99;59.41;93231.69;1677807;77;21555;-75
2021/08/03 08:28:07;;;;;;;1.80;1.70;;;;;;;19.93;59.20;93228.61;1759146;77;20923;-75
2021/08/03 08:30:35;;;;;;;2.17;2.05;;;;;;;19.86;58.95;93230.47;1741206;79;20974;-75
2021/08/03 08:33:01;;;;;;;2.58;1.62;;;;;;;19.85;57.66;93230.30;1711302;79;21038;-75
2021/08/03 08:35:28;;;;;;;1.80;1.70;;;;;;;19.90;56.54;93231.70;1735354;79;21057;-76
2021/08/03 08:37:59;;;;;;;1.90;1.80;;;;;;;19.91;55.32;93228.32;1762174;77;22200;-76
2021/08/03 08:40:27;;;;;;;4.33;2.27;;;;;;;19.89;55.59;93224.01;1720942;78;20992;-75
2021/08/03 08:42:54;;;;;;;2.85;1.98;;;;;;;19.92;56.79;93222.33;1778226;77;20921;-74
2021/08/03 08:45:20;;;;;;;2.70;2.50;;;;;;;20.03;57.75;93220.50;1801738;77;20954;-75
2021/08/03 08:47:48;;;;;;;1.98;1.85;;;;;;;20.17;57.08;93221.88;1689763;80;21013;-76
2021/08/03 08:50:20;;;;;;;1.70;1.60;;;;;;;20.26;55.65;93226.77;1751831;77;21060;-77
2021/08/03 08:52:46;;;;;;;2.85;2.25;;;;;;;20.28;53.30;93221.56;1773292;79;20954;-73
2021/08/03 08:55:12;;;;;;;2.27;2.02;;;;;;;20.28;55.47;93214.66;1786003;78;20911;-75
2021/08/03 08:57:39;;;;;;;5.72;2.85;;;;;;;20.28;55.93;93220.80;1753236;79;20989;-75
2021/08/03 09:00:07;;;;;;;13.05;4.08;;;;;;;20.23;56.92;93214.50;1779838;77;20929;-75
2021/08/03 09:02:43;;;;;;;3.98;3.67;;;;;;;20.19;56.97;93213.89;1770242;77;21003;-76
2021/08/03 09:05:15;;;;;;;3.77;3.47;;;;;;;20.19;57.58;93213.27;1751234;77;20956;-75
2021/08/03 09:07:54;;;;;;;6.62;3.30;;;;;;;20.22;56.98;93221.25;1719219;77;21020;-77
2021/08/03 09:10:37;;;;;;;2.30;2.10;;;;;;;20.22;56.98;93217.11;1737284;78;20983;-77
2021/08/03 09:13:08;;;;;;;1.90;1.80;;;;;;;20.22;56.12;93217.87;1760694;77;21013;-75
2021/08/03 09:15:36;;;;;;;3.12;2.00;;;;;;;20.20;55.27;93220.34;1758618;77;21150;-76
2021/08/03 09:18:17;;;;;;;4.05;3.08;;;;;;;20.25;56.52;93221.72;1781710;77;20961;-75
2021/08/03 09:20:45;;;;;;;3.40;3.20;;;;;;;20.28;59.55;93218.03;1770781;77;21031;-75
2021/08/03 09:23:12;;;;;;;5.45;3.30;;;;;;;20.21;60.84;93215.59;1753008;77;20923;-75
2021/08/03 09:25:39;;;;;;;4.70;3.50;;;;;;;20.02;61.56;93225.25;1630933;80;21030;-75
2021/08/03 09:28:09;;;;;;;4.85;4.20;;;;;;;19.85;62.83;93219.88;1721679;78;21525;-74
2021/08/03 09:30:37;;;;;;;4.83;2.87;;;;;;;19.71;63.64;93216.33;1765733;77;20983;-75
2021/08/03 09:33:05;;;;;;;5.25;4.40;;;;;;;19.68;64.08;93209.77;1740915;79;20963;-75
2021/08/03 09:35:33;;;;;;;3.45;3.15;;;;;;;19.74;63.31;93209.91;1752219;78;20902;-74
2021/08/03 09:37:59;;;;;;;3.10;2.45;;;;;;;19.82;62.05;93208.38;1726562;79;20978;-76
2021/08/03 09:40:34;;;;;;;2.52;2.40;;;;;;;19.87;60.12;93205.78;1767244;77;21018;-74
2021/08/03 09:43:10;;;;;;;8.48;2.80;;;;;;;19.95;62.54;93203.48;1723017;78;20934;-76
2021/08/03 09:45:48;;;;;;;4.20;3.17;;;;;;;20.05;63.29;93205.02;1806316;77;20929;-76
2021/08/03 09:48:20;;;;;;;4.15;3.08;;;;;;;20.10;63.38;93206.39;1742184;79;21810;-77
2021/08/03 09:51:07;;;;;;;3.00;2.70;;;;;;;20.13;64.35;93202.72;1732217;77;20997;-75
2021/08/03 09:53:52;;;;;;;3.52;2.90;;;;;;;20.13;63.85;93200.72;1752953;79;21735;-76
2021/08/03 09:56:28;;;;;;;3.95;2.98;;;;;;;20.11;64.37;93196.88;1760272;77;20981;-76
2021/08/03 09:59:00;;;;;;;3.47;3.17;;;;;;;20.10;65.55;93196.11;1714193;80;21846;-76
2021/08/03 10:01:39;;;;;;;3.22;3.02;;;;;;;20.10;63.92;93193.97;1753150;78;20992;-74
2021/08/03 10:04:11;;;;;;;2.90;2.70;;;;;;;20.06;63.18;93194.74;1779282;78;20985;-74
2021/08/03 10:06:41;;;;;;;2.87;2.70;;;;;;;19.97;63.46;93191.97;1782419;78;21645;-75
2021/08/03 10:09:09;;;;;;;3.58;2.75;;;;;;;19.96;65.06;93193.97;1747884;77;20924;-75
2021/08/03 10:11:36;;;;;;;8.08;3.30;;;;;;;19.97;64.00;93193.35;1734631;79;21048;-75
2021/08/03 10:14:04;;;;;;;3.40;3.20;;;;;;;19.93;64.42;93196.27;1768223;79;20874;-74
2021/08/03 10:16:31;;;;;;;3.55;3.25;;;;;;;19.89;65.08;93197.80;1742673;79;20990;-75
2021/08/03 10:19:01;;;;;;;3.47;3.15;;;;;;;19.84;65.42;93198.42;1749111;79;22354;-74
2021/08/03 10:21:32;;;;;;;3.47;3.17;;;;;;;19.80;65.80;93192.91;1774231;78;22177;-75
2021/08/03 10:24:05;;;;;;;3.47;3.17;;;;;;;19.81;66.77;93192.44;1775141;77;21052;-75
2021/08/03 10:26:31;;;;;;;3.60;3.30;;;;;;;19.85;66.77;93190.29;1772965;77;21298;-75
2021/08/03 10:29:25;;;;;;;3.08;2.87;;;;;;;19.86;66.02;93186.94;1778320;79;21311;-75
2021/08/03 10:31:52;;;;;;;7.28;3.65;;;;;;;19.84;66.35;93188.77;1775656;77;21246;-75
2021/08/03 10:34:48;;;;;;;3.50;3.30;;;;;;;19.85;66.70;93196.42;1780122;78;21658;-75
2021/08/03 10:37:15;;;;;;;3.75;3.45;;;;;;;19.82;67.17;93200.89;1732146;79;22208;-75
2021/08/03 10:39:57;;;;;;;4.03;3.72;;;;;;;19.84;68.51;93192.91;1770176;77;21167;-76
2021/08/03 10:42:25;;;;;;;4.33;3.92;;;;;;;19.86;67.96;93184.18;1773878;77;22051;-75
2021/08/03 10:44:58;;;;;;;3.92;3.62;;;;;;;19.88;68.49;93184.47;1758744;77;20964;-76
2021/08/03 10:47:36;;;;;;;4.40;3.62;;;;;;;19.87;68.99;93190.61;1713280;78;20961;-75
2021/08/03 10:50:09;;;;;;;4.03;3.72;;;;;;;19.85;68.58;93190.91;1743851;78;20987;-76
2021/08/03 10:52:48;;;;;;;3.40;3.10;;;;;;;19.82;67.92;93202.27;1743771;77;20929;-76
2021/08/03 10:55:39;;;;;;;4.55;4.12;;;;;;;19.80;67.86;93205.32;1782326;78;20946;-76
2021/08/03 10:58:17;;;;;;;6.42;4.70;;;;;;;19.80;67.85;93200.56;1806153;77;21068;-74
2021/08/03 11:00:48;;;;;;;3.47;3.12;;;;;;;19.85;68.53;93203.32;1756247;77;21904;-77
2021/08/03 11:03:38;;;;;;;4.08;3.72;;;;;;;19.92;65.55;93205.02;1777051;77;20953;-77
2021/08/03 11:06:14;;;;;;;4.03;3.72;;;;;;;19.95;65.83;93207.63;1776650;77;20968;-76
2021/08/03 11:08:42;;;;;;;4.70;3.05;;;;;;;20.01;66.39;93207.76;1779311;77;20980;-76
2021/08/03 11:11:28;;;;;;;7.60;3.77;;;;;;;20.07;66.38;93203.16;1749728;79;21892;-75
2021/08/03 11:14:05;;;;;;;3.90;3.60;;;;;;;20.06;65.85;93201.02;1797548;77;20922;-74
2021/08/03 11:16:38;;;;;;;5.53;3.40;;;;;;;20.03;66.64;93216.36;1748211;79;20973;-79
2021/08/03 11:19:06;;;;;;;7.60;3.92;;;;;;;19.95;66.95;93216.52;1749920;78;20997;-73
2021/08/03 11:21:47;;;;;;;14.90;11.70;;;;;;;19.82;66.15;93212.51;1646440;80;20988;-74
2021/08/03 11:24:19;;;;;;;6.20;5.20;;;;;;;19.72;66.62;93219.27;1776965;78;21084;-76
2021/08/03 11:26:55;;;;;;;4.97;4.35;;;;;;;19.63;67.84;93227.69;1716831;78;20911;-76
2021/08/03 11:29:24;;;;;;;4.05;3.60;;;;;;;19.58;67.62;93222.73;1722762;78;21013;-75
2021/08/03 11:31:58;;;;;;;3.87;3.58;;;;;;;19.54;67.08;93217.21;1715311;78;20966;-75
2021/08/03 11:34:28;;;;;;;4.90;4.05;;;;;;;19.48;67.45;93208.77;1661773;80;21015;-75
2021/08/03 11:37:12;;;;;;;3.40;3.10;;;;;;;19.49;68.27;93217.83;1703252;78;22145;-75
2021/08/03 11:39:43;;;;;;;3.15;2.85;;;;;;;19.56;69.26;93220.30;1695253;80;20953;-76
2021/08/03 11:42:11;;;;;;;4.20;3.80;;;;;;;19.65;68.73;93208.67;1708431;80;20984;-75
2021/08/03 11:44:38;;;;;;;3.70;3.40;;;;;;;19.75;65.95;93203.95;1682311;78;21575;-75
2021/08/03 11:47:12;;;;;;;3.10;2.90;;;;;;;19.80;66.15;93203.94;1741469;80;21042;-74
2021/08/03 11:49:47;;;;;;;4.90;3.58;;;;;;;19.80;65.46;93203.33;1776953;78;21116;-76
2021/08/03 11:52:20;;;;;;;3.00;2.62;;;;;;;19.78;65.79;93207.17;1695074;80;21031;-74
2021/08/03 11:54:55;;;;;;;3.17;2.87;;;;;;;19.75;66.15;93199.81;1743777;80;21009;-78